Time;durP1;ratioP1;P1;durP2;ratioP2;P2;SDS_P1;SDS_P2;PMS_P1;PMS_P2;Temp;Humidity;BMP_temperature;BMP_pressure;BME280_temperature;BME280_humidity;BME280_pressure;Samples;Min_cycle;Max_cycle;Signal;HPM_P1;HPM_P2
2022/03/21 00:01:12;;;;;;;107.47;69.50;;;3.70;99.90;;;;;;4995532;28;20042;-79
2022/03/21 00:03:38;;;;;;;103.55;66.35;;;3.70;99.90;;;;;;4994569;28;20364;-77
2022/03/21 00:06:04;;;;;;;113.15;70.00;;;3.70;99.90;;;;;;4994567;28;20038;-75
2022/03/21 00:08:29;;;;;;;115.78;72.93;;;3.70;99.90;;;;;;4988946;28;20030;-75
2022/03/21 00:10:56;;;;;;;118.45;73.63;;;3.70;99.90;;;;;;4977995;28;20079;-78
2022/03/21 00:13:23;;;;;;;110.45;71.38;;;3.70;99.90;;;;;;4977989;28;20351;-76
2022/03/21 00:15:50;;;;;;;127.00;75.78;;;3.70;99.90;;;;;;4995289;28;20047;-76
2022/03/21 00:18:16;;;;;;;118.85;74.18;;;3.70;99.90;;;;;;4978556;28;20348;-76
2022/03/21 00:20:49;;;;;;;120.18;76.18;;;3.70;99.90;;;;;;4995290;28;20063;-76
2022/03/21 00:23:15;;;;;;;120.70;75.90;;;3.80;99.90;;;;;;4993650;28;20101;-75
2022/03/21 00:25:41;;;;;;;116.60;74.32;;;3.70;99.90;;;;;;4995741;28;20109;-76
2022/03/21 00:28:08;;;;;;;114.40;74.22;;;3.70;99.90;;;;;;4998213;28;20061;-77
2022/03/21 00:30:35;;;;;;;116.57;74.07;;;3.70;99.90;;;;;;4999060;28;20042;-78
2022/03/21 00:33:01;;;;;;;122.03;77.22;;;3.70;99.90;;;;;;4999209;28;20061;-76
2022/03/21 00:35:29;;;;;;;115.95;72.07;;;3.70;99.90;;;;;;4999267;28;20034;-76
2022/03/21 00:37:55;;;;;;;112.30;69.55;;;3.60;99.90;;;;;;4998576;28;20057;-75
2022/03/21 00:40:21;;;;;;;116.55;69.45;;;3.70;99.90;;;;;;4999132;28;20057;-76
2022/03/21 00:42:48;;;;;;;110.50;72.47;;;3.60;99.90;;;;;;4997774;28;20369;-77
2022/03/21 00:45:19;;;;;;;118.80;72.95;;;3.70;99.90;;;;;;4999255;28;20038;-75
2022/03/21 00:47:46;;;;;;;127.03;76.70;;;3.60;99.90;;;;;;4998101;28;20049;-77
2022/03/21 00:50:15;;;;;;;112.43;72.03;;;3.60;99.90;;;;;;4998563;28;20039;-77
2022/03/21 00:52:44;;;;;;;125.13;76.97;;;3.70;99.90;;;;;;4998272;28;20053;-78
2022/03/21 00:55:11;;;;;;;109.97;73.00;;;3.70;99.90;;;;;;4998764;28;20047;-77
2022/03/21 00:57:40;;;;;;;106.22;68.20;;;3.70;99.90;;;;;;4999080;28;20345;-76
2022/03/21 01:00:08;;;;;;;112.05;71.43;;;3.70;99.90;;;;;;4994618;28;20125;-76
2022/03/21 01:02:35;;;;;;;109.80;71.18;;;3.60;99.90;;;;;;4998666;28;20065;-77
2022/03/21 01:05:01;;;;;;;107.38;69.15;;;3.70;99.90;;;;;;4998121;28;20042;-76
2022/03/21 01:07:26;;;;;;;110.25;71.25;;;3.70;99.90;;;;;;4997594;28;20126;-75
2022/03/21 01:09:52;;;;;;;108.35;70.43;;;3.60;99.90;;;;;;4996596;28;20038;-78
2022/03/21 01:12:18;;;;;;;103.18;71.03;;;3.60;99.90;;;;;;4998490;28;20464;-75
2022/03/21 01:14:43;;;;;;;101.18;68.25;;;3.60;99.90;;;;;;4998669;28;20412;-78
2022/03/21 01:17:09;;;;;;;107.28;68.80;;;3.60;99.90;;;;;;4997237;28;20034;-77
2022/03/21 01:19:34;;;;;;;105.53;69.68;;;3.50;99.90;;;;;;4996875;28;20049;-76
2022/03/21 01:22:00;;;;;;;104.45;68.75;;;3.50;99.90;;;;;;4997228;28;20528;-78
2022/03/21 01:24:25;;;;;;;101.97;66.30;;;3.50;99.90;;;;;;4997607;28;20133;-77
2022/03/21 01:26:51;;;;;;;107.13;69.00;;;3.50;99.90;;;;;;4997662;28;20042;-76
2022/03/21 01:29:17;;;;;;;106.10;67.90;;;3.40;99.90;;;;;;4998057;28;20038;-76
2022/03/21 01:31:43;;;;;;;99.50;67.82;;;3.50;99.90;;;;;;4996830;28;20057;-75
2022/03/21 01:34:08;;;;;;;106.28;68.03;;;3.40;99.90;;;;;;4997764;28;20035;-78
2022/03/21 01:36:34;;;;;;;102.78;68.55;;;3.40;99.90;;;;;;4997488;28;20057;-76
2022/03/21 01:38:59;;;;;;;104.55;67.82;;;3.40;99.90;;;;;;4997402;28;20042;-78
2022/03/21 01:41:25;;;;;;;104.53;66.32;;;3.40;99.90;;;;;;4997712;28;20042;-78
2022/03/21 01:44:06;;;;;;;103.32;68.18;;;3.30;99.90;;;;;;4997972;28;20105;-76
2022/03/21 01:46:32;;;;;;;102.63;67.30;;;3.30;99.90;;;;;;4996687;28;20053;-76
2022/03/21 01:48:59;;;;;;;106.05;70.15;;;3.30;99.90;;;;;;4996897;28;20504;-75
2022/03/21 01:51:26;;;;;;;107.32;70.63;;;3.30;99.90;;;;;;4996760;28;20073;-78
2022/03/21 01:56:41;;;;;;;104.57;66.20;;;3.30;99.90;;;;;;4997839;28;20054;-77
2022/03/21 01:59:11;;;;;;;102.85;68.95;;;3.20;99.90;;;;;;5005925;28;20467;-78
2022/03/21 02:01:38;;;;;;;104.80;68.82;;;3.30;99.90;;;;;;5016437;28;20116;-76
2022/03/21 02:04:04;;;;;;;101.22;66.03;;;3.30;99.90;;;;;;4999857;28;20394;-75
2022/03/21 02:06:30;;;;;;;101.13;66.22;;;3.20;99.90;;;;;;5016977;28;20050;-78
2022/03/21 02:09:00;;;;;;;106.55;69.70;;;3.30;99.90;;;;;;5017236;28;20049;-75
2022/03/21 02:11:27;;;;;;;106.50;70.13;;;3.30;99.90;;;;;;5017004;28;20041;-76
2022/03/21 02:14:00;;;;;;;103.03;68.00;;;3.20;99.90;;;;;;5016487;28;20041;-75
2022/03/21 02:16:28;;;;;;;104.30;66.82;;;3.20;99.90;;;;;;4986740;28;20081;-77
2022/03/21 02:18:54;;;;;;;103.07;66.22;;;3.10;99.90;;;;;;4999481;28;20475;-76
2022/03/21 02:21:26;;;;;;;101.20;67.78;;;3.20;99.90;;;;;;5017097;28;20049;-76
2022/03/21 02:23:59;;;;;;;104.65;68.07;;;3.20;99.90;;;;;;5016681;28;20049;-77
2022/03/21 02:26:26;;;;;;;105.03;68.25;;;3.10;99.90;;;;;;5016204;28;20037;-78
2022/03/21 02:28:53;;;;;;;100.40;66.85;;;3.10;99.90;;;;;;4966186;28;20081;-78
2022/03/21 02:31:19;;;;;;;109.55;69.38;;;3.20;99.90;;;;;;4985340;28;20053;-77
2022/03/21 02:33:46;;;;;;;108.68;69.18;;;3.10;99.90;;;;;;4996797;28;20061;-78
2022/03/21 02:36:15;;;;;;;109.22;71.22;;;3.10;99.90;;;;;;4979494;28;20073;-75
2022/03/21 02:38:42;;;;;;;111.22;72.03;;;3.10;99.90;;;;;;4979863;28;20046;-78
2022/03/21 02:41:07;;;;;;;100.15;66.63;;;3.10;99.90;;;;;;4996256;28;20395;-78
2022/03/21 02:43:55;;;;;;;101.63;66.95;;;3.10;99.90;;;;;;4979958;28;20054;-75
2022/03/21 02:46:21;;;;;;;110.88;68.78;;;3.20;99.90;;;;;;4994911;28;20345;-77
2022/03/21 02:48:49;;;;;;;104.10;67.70;;;3.10;99.90;;;;;;4995719;28;20046;-77
2022/03/21 02:51:17;;;;;;;112.20;72.38;;;3.10;99.90;;;;;;4997685;28;20385;-77
2022/03/21 02:53:45;;;;;;;102.07;67.88;;;3.10;99.90;;;;;;4995693;28;20129;-78
2022/03/21 02:56:10;;;;;;;107.97;71.18;;;3.10;99.90;;;;;;4996238;28;20121;-76
2022/03/21 02:58:36;;;;;;;99.72;66.55;;;3.10;99.90;;;;;;4996293;28;20528;-78
2022/03/21 03:01:12;;;;;;;101.30;66.88;;;3.10;99.90;;;;;;4996376;28;20085;-77
2022/03/21 03:03:38;;;;;;;107.32;69.10;;;3.10;99.90;;;;;;4996517;28;20349;-77
2022/03/21 03:06:04;;;;;;;106.35;67.65;;;3.10;99.90;;;;;;4995367;28;20050;-77
2022/03/21 03:08:31;;;;;;;96.40;66.35;;;3.10;99.90;;;;;;4996474;28;20408;-76
2022/03/21 03:10:57;;;;;;;98.22;68.20;;;3.00;99.90;;;;;;4995217;28;20050;-77
2022/03/21 03:13:23;;;;;;;97.00;64.10;;;3.10;99.90;;;;;;4996119;28;20034;-77
2022/03/21 03:15:48;;;;;;;96.78;65.07;;;3.10;99.90;;;;;;4995983;28;20112;-77
2022/03/21 03:18:14;;;;;;;102.75;65.30;;;3.00;99.90;;;;;;4996168;28;20046;-78
2022/03/21 03:20:51;;;;;;;99.70;65.93;;;3.10;99.90;;;;;;4994996;28;20126;-75
2022/03/21 03:23:22;;;;;;;105.05;69.85;;;3.00;99.90;;;;;;4996036;28;20121;-75
2022/03/21 03:25:56;;;;;;;101.93;68.57;;;3.00;99.90;;;;;;4995908;28;20074;-78
2022/03/21 03:28:22;;;;;;;100.35;64.95;;;3.00;99.90;;;;;;4995635;28;20092;-75
2022/03/21 03:30:48;;;;;;;99.93;67.22;;;3.00;99.90;;;;;;4995882;28;20050;-76
2022/03/21 03:33:13;;;;;;;101.90;66.47;;;3.00;99.90;;;;;;4995469;28;20034;-75
2022/03/21 03:35:40;;;;;;;101.30;67.13;;;3.00;99.90;;;;;;4995759;28;20084;-78
2022/03/21 03:38:06;;;;;;;107.47;68.13;;;3.10;99.90;;;;;;4995606;28;20053;-77
2022/03/21 03:40:31;;;;;;;101.88;66.78;;;3.00;99.90;;;;;;4995836;28;20441;-75
2022/03/21 03:42:57;;;;;;;99.90;65.57;;;3.00;99.90;;;;;;4995244;28;20473;-76
2022/03/21 03:45:23;;;;;;;108.55;69.40;;;3.00;99.90;;;;;;4995847;28;20057;-78
2022/03/21 03:47:48;;;;;;;100.13;65.95;;;3.00;99.90;;;;;;4995654;28;20050;-76
2022/03/21 03:50:14;;;;;;;98.63;65.40;;;3.00;99.90;;;;;;4995191;28;20042;-76
2022/03/21 03:52:40;;;;;;;95.82;65.22;;;3.00;99.90;;;;;;4994361;28;20046;-76
2022/03/21 03:55:07;;;;;;;95.18;64.78;;;3.00;99.90;;;;;;4995553;28;20053;-75
2022/03/21 03:57:33;;;;;;;95.18;64.95;;;3.00;99.90;;;;;;4995380;28;20053;-76
2022/03/21 03:59:59;;;;;;;103.25;66.63;;;3.00;99.90;;;;;;5010610;28;20356;-77
2022/03/21 04:02:24;;;;;;;98.38;63.75;;;3.00;99.90;;;;;;5014500;28;20050;-75
2022/03/21 04:04:50;;;;;;;101.88;66.25;;;3.00;99.90;;;;;;5015307;28;20038;-76
2022/03/21 04:07:18;;;;;;;98.95;66.40;;;2.90;99.90;;;;;;5015138;28;20049;-75
2022/03/21 04:09:44;;;;;;;95.38;63.88;;;3.00;99.90;;;;;;5014678;28;20483;-77
2022/03/21 04:12:10;;;;;;;107.32;66.18;;;3.00;99.90;;;;;;4998265;28;20073;-74
2022/03/21 04:14:36;;;;;;;92.53;64.80;;;2.90;99.90;;;;;;4978695;28;20058;-77
2022/03/21 04:17:01;;;;;;;100.75;67.28;;;2.90;99.90;;;;;;4994885;28;20046;-75
2022/03/21 04:19:27;;;;;;;95.75;63.92;;;2.90;99.90;;;;;;4969247;28;20456;-78
2022/03/21 04:21:53;;;;;;;99.13;64.22;;;2.90;99.90;;;;;;5014977;28;20041;-78
2022/03/21 04:24:18;;;;;;;95.82;65.97;;;2.90;99.90;;;;;;5014589;28;20128;-77
2022/03/21 04:26:44;;;;;;;98.03;65.13;;;2.90;99.90;;;;;;5014899;28;20092;-78
2022/03/21 04:29:09;;;;;;;96.82;64.75;;;2.90;99.90;;;;;;5014951;28;20037;-78
2022/03/21 04:31:35;;;;;;;98.53;65.32;;;2.90;99.90;;;;;;5014327;28;20056;-76
2022/03/21 04:34:00;;;;;;;99.65;65.88;;;2.90;99.90;;;;;;5014000;28;20128;-77
2022/03/21 04:36:27;;;;;;;95.85;62.75;;;2.90;99.90;;;;;;5014717;28;20030;-76
2022/03/21 04:38:53;;;;;;;101.30;68.32;;;2.90;99.90;;;;;;4997308;28;20046;-77
2022/03/21 04:41:19;;;;;;;100.22;66.50;;;2.90;99.90;;;;;;5008017;28;20046;-75
2022/03/21 04:43:44;;;;;;;100.88;67.70;;;2.90;99.90;;;;;;5014529;28;20053;-75
2022/03/21 04:46:10;;;;;;;99.50;64.72;;;2.80;99.90;;;;;;5014471;28;20109;-78
2022/03/21 04:48:35;;;;;;;110.68;68.53;;;2.90;99.90;;;;;;5014361;28;20452;-78
2022/03/21 04:51:01;;;;;;;107.65;69.68;;;2.90;99.90;;;;;;5014683;28;20034;-77
2022/03/21 04:53:27;;;;;;;113.10;70.97;;;2.90;99.90;;;;;;4988498;28;20158;-76
2022/03/21 04:55:52;;;;;;;107.63;69.63;;;2.90;99.90;;;;;;4995592;28;20132;-78
2022/03/21 04:58:18;;;;;;;109.00;71.55;;;2.80;99.90;;;;;;4994758;28;20201;-78
2022/03/21 05:00:46;;;;;;;108.93;69.22;;;2.90;99.90;;;;;;4994487;28;20104;-75
2022/03/21 05:03:12;;;;;;;112.28;71.13;;;2.90;99.90;;;;;;4994794;28;20113;-74
2022/03/21 05:05:38;;;;;;;109.38;71.93;;;2.90;99.90;;;;;;4995293;28;20046;-77
2022/03/21 05:08:04;;;;;;;109.13;69.10;;;2.90;99.90;;;;;;4994512;28;20039;-78
2022/03/21 05:10:31;;;;;;;109.60;69.65;;;2.90;99.90;;;;;;4993876;28;20132;-78
2022/03/21 05:12:58;;;;;;;107.68;69.90;;;3.00;99.90;;;;;;4996722;28;20034;-75
2022/03/21 05:15:25;;;;;;;114.82;69.75;;;2.90;99.90;;;;;;4997783;28;20127;-77
2022/03/21 05:17:53;;;;;;;106.20;68.68;;;2.90;99.90;;;;;;4998333;28;20460;-77
2022/03/21 05:20:19;;;;;;;105.50;65.72;;;2.90;99.90;;;;;;4997062;28;20049;-76
2022/03/21 05:30:57;;;;;;;110.80;67.75;;;2.90;99.90;;;;;;4997271;28;20042;-78
2022/03/21 05:31:07;;;;;;;107.50;66.90;;;3.00;99.90;;;;;;4997681;28;20049;-75
2022/03/21 05:36:19;;;;;;;101.93;65.50;;;2.90;99.90;;;;;;4997520;28;20050;-76
2022/03/21 05:38:45;;;;;;;105.78;66.28;;;2.90;99.90;;;;;;4997427;28;20108;-75
2022/03/21 05:41:12;;;;;;;101.88;64.53;;;2.90;99.90;;;;;;4996661;28;20042;-77
2022/03/21 05:43:38;;;;;;;105.72;65.10;;;2.90;99.90;;;;;;4997265;28;20046;-75
2022/03/21 05:46:04;;;;;;;100.28;66.20;;;2.90;99.90;;;;;;4997828;28;20050;-75
2022/03/21 05:51:28;;;;;;;99.70;64.45;;;2.90;99.90;;;;;;4997079;28;20415;-76
2022/03/21 05:53:57;;;;;;;104.88;64.55;;;3.00;99.90;;;;;;4993322;28;20046;-75
2022/03/21 05:56:25;;;;;;;103.80;64.80;;;2.90;99.90;;;;;;4996568;28;20038;-78
2022/03/21 05:58:52;;;;;;;102.13;68.10;;;3.00;99.90;;;;;;5003776;28;20350;-74
2022/03/21 06:01:22;;;;;;;100.28;66.40;;;3.00;99.90;;;;;;5000163;28;20049;-76
2022/03/21 06:03:52;;;;;;;101.60;66.88;;;3.00;99.90;;;;;;5009121;28;20112;-76
2022/03/21 06:06:21;;;;;;;107.95;66.40;;;3.00;99.90;;;;;;4999438;28;20057;-79
2022/03/21 06:08:49;;;;;;;103.20;64.90;;;3.00;99.90;;;;;;5016962;28;20100;-76
2022/03/21 06:11:15;;;;;;;98.25;64.55;;;3.00;99.90;;;;;;5016780;28;20372;-76
2022/03/21 06:13:43;;;;;;;103.45;65.13;;;3.10;99.90;;;;;;4998666;28;20045;-77
2022/03/21 06:16:10;;;;;;;94.05;63.40;;;3.10;99.90;;;;;;5016338;28;20468;-74
2022/03/21 06:18:37;;;;;;;102.57;65.82;;;3.10;99.90;;;;;;4998914;28;20113;-76
2022/03/21 06:21:05;;;;;;;97.28;62.53;;;3.10;99.90;;;;;;4999543;28;20085;-76
2022/03/21 06:23:31;;;;;;;99.22;64.63;;;3.10;99.90;;;;;;5015775;28;20042;-74
2022/03/21 06:25:58;;;;;;;98.63;65.07;;;3.10;99.90;;;;;;5014756;28;20387;-75
2022/03/21 06:28:26;;;;;;;98.88;65.72;;;3.20;99.90;;;;;;5015842;28;20057;-76
2022/03/21 06:31:02;;;;;;;99.45;65.10;;;3.20;99.90;;;;;;5016304;28;20041;-78
2022/03/21 06:33:46;;;;;;;95.18;61.63;;;3.20;99.90;;;;;;5000248;28;20053;-75
2022/03/21 06:36:41;;;;;;;92.78;61.67;;;3.20;99.90;;;;;;5015959;28;20045;-75
2022/03/21 06:39:07;;;;;;;96.43;63.33;;;3.30;99.90;;;;;;4997369;28;20034;-76
2022/03/21 06:41:35;;;;;;;95.20;62.78;;;3.30;99.90;;;;;;4980005;28;20495;-77
2022/03/21 06:44:01;;;;;;;93.70;60.38;;;3.30;99.90;;;;;;4996348;28;20034;-78
2022/03/21 06:46:27;;;;;;;94.68;61.22;;;3.40;99.90;;;;;;4963131;28;20077;-76
2022/03/21 06:48:53;;;;;;;90.00;59.55;;;3.40;99.90;;;;;;4979127;28;20117;-79
2022/03/21 06:51:18;;;;;;;93.85;61.38;;;3.40;99.90;;;;;;4988447;28;20145;-78
2022/03/21 06:53:44;;;;;;;91.15;60.97;;;3.50;99.90;;;;;;4998813;28;20434;-78
2022/03/21 06:56:09;;;;;;;94.47;60.47;;;3.60;99.90;;;;;;4998754;28;20403;-79
2022/03/21 06:58:35;;;;;;;92.30;59.92;;;3.60;99.90;;;;;;5015891;28;20133;-79
2022/03/21 07:01:00;;;;;;;85.68;59.47;;;3.60;99.90;;;;;;4996696;28;20121;-79
2022/03/21 07:03:26;;;;;;;89.22;59.25;;;3.70;99.90;;;;;;4996191;28;20106;-79
2022/03/21 07:05:52;;;;;;;81.45;57.03;;;3.80;99.90;;;;;;4995912;28;20053;-78
2022/03/21 07:08:18;;;;;;;86.75;59.22;;;3.90;99.90;;;;;;4979011;28;20039;-79
2022/03/21 07:10:44;;;;;;;85.20;57.20;;;3.90;99.90;;;;;;4995899;28;20128;-78
2022/03/21 07:13:10;;;;;;;86.85;57.85;;;4.00;99.90;;;;;;4995823;28;20092;-78
2022/03/21 07:15:40;;;;;;;85.20;57.17;;;4.10;99.90;;;;;;5013023;28;20104;-78
2022/03/21 07:18:05;;;;;;;84.78;54.38;;;4.10;99.90;;;;;;4998659;28;20049;-77
2022/03/21 07:20:31;;;;;;;81.97;54.47;;;4.10;99.90;;;;;;4998393;28;20045;-78
2022/03/21 07:22:58;;;;;;;79.78;55.30;;;4.20;99.90;;;;;;4998206;28;20057;-78
2022/03/21 07:25:24;;;;;;;83.72;56.13;;;4.30;99.90;;;;;;4998186;28;20049;-77
2022/03/21 07:27:51;;;;;;;80.60;55.03;;;4.40;99.90;;;;;;5015269;28;20124;-78
2022/03/21 07:30:17;;;;;;;82.70;54.92;;;4.50;99.90;;;;;;4982431;28;20042;-77
2022/03/21 07:32:43;;;;;;;76.95;52.55;;;4.50;99.90;;;;;;4995359;28;20089;-79
2022/03/21 07:35:10;;;;;;;76.55;53.40;;;4.50;99.90;;;;;;5009669;28;20057;-79
2022/03/21 07:37:50;;;;;;;76.20;53.40;;;4.60;99.90;;;;;;5015779;28;20041;-77
2022/03/21 07:40:18;;;;;;;84.75;55.63;;;4.60;99.90;;;;;;5015110;28;20095;-79
2022/03/21 07:42:45;;;;;;;75.80;52.50;;;4.70;99.90;;;;;;4997578;28;20054;-77
2022/03/21 07:47:56;;;;;;;77.18;53.22;;;4.70;99.90;;;;;;5014478;28;20053;-78
2022/03/21 07:50:23;;;;;;;74.78;52.53;;;4.80;99.90;;;;;;4997629;28;20356;-77
2022/03/21 07:52:51;;;;;;;76.60;53.17;;;4.90;99.90;;;;;;5015635;28;20053;-79
2022/03/21 07:55:17;;;;;;;73.65;53.38;;;5.00;99.90;;;;;;5014926;28;20046;-77
2022/03/21 07:57:43;;;;;;;78.22;51.80;;;4.90;99.90;;;;;;5014623;28;20056;-78
2022/03/21 08:00:09;;;;;;;73.43;51.28;;;5.00;99.90;;;;;;4991406;28;20046;-76
2022/03/21 08:02:37;;;;;;;73.38;51.33;;;5.10;99.90;;;;;;4972314;28;20368;-77
2022/03/21 08:05:04;;;;;;;68.10;46.45;;;5.20;99.90;;;;;;4995406;28;20054;-78
2022/03/21 08:07:31;;;;;;;70.25;47.55;;;5.20;99.90;;;;;;4978427;28;20049;-76
2022/03/21 08:09:57;;;;;;;70.45;48.03;;;5.30;99.90;;;;;;4995100;28;20074;-77
2022/03/21 08:12:23;;;;;;;61.45;43.42;;;5.40;99.90;;;;;;4995218;28;20093;-77
2022/03/21 08:14:51;;;;;;;63.30;42.10;;;5.40;99.90;;;;;;4978103;28;20133;-79
2022/03/21 08:17:18;;;;;;;56.65;40.90;;;5.50;99.90;;;;;;4979348;28;20093;-78
2022/03/21 08:19:44;;;;;;;62.03;40.88;;;5.60;99.90;;;;;;5004436;28;20033;-74
2022/03/21 08:22:09;;;;;;;59.95;41.33;;;5.70;99.90;;;;;;5015078;28;20405;-77
2022/03/21 08:24:35;;;;;;;59.90;41.08;;;5.80;99.90;;;;;;5006065;28;20108;-76
2022/03/21 08:27:01;;;;;;;58.15;39.58;;;5.90;99.90;;;;;;4995485;28;20038;-75
2022/03/21 08:29:27;;;;;;;53.17;38.47;;;5.90;99.90;;;;;;4994620;28;20065;-79
2022/03/21 08:31:52;;;;;;;55.65;40.30;;;6.00;99.90;;;;;;4995126;28;20445;-78
2022/03/21 08:34:18;;;;;;;49.40;36.72;;;6.10;99.90;;;;;;4995621;28;20038;-75
2022/03/21 08:36:45;;;;;;;50.88;35.40;;;6.10;99.90;;;;;;4995055;28;20042;-76
2022/03/21 08:39:10;;;;;;;50.22;37.45;;;6.20;99.90;;;;;;4978107;28;20073;-75
2022/03/21 08:41:38;;;;;;;49.85;35.80;;;6.20;99.90;;;;;;4995112;28;20444;-76
2022/03/21 08:44:04;;;;;;;53.78;38.17;;;6.30;99.90;;;;;;4994575;28;20117;-76
2022/03/21 08:46:29;;;;;;;49.20;35.38;;;6.40;99.90;;;;;;4995721;28;20042;-75
2022/03/21 08:51:39;;;;;;;46.92;34.47;;;6.50;99.90;;;;;;4998892;28;20043;-77
2022/03/21 08:54:07;;;;;;;53.50;35.33;;;6.50;99.90;;;;;;4981668;28;20054;-77
2022/03/21 08:56:33;;;;;;;50.90;35.75;;;6.60;99.90;;;;;;4998712;28;20050;-77
2022/03/21 08:58:59;;;;;;;54.83;36.60;;;6.70;99.90;;;;;;4998870;28;20437;-76
2022/03/21 09:01:25;;;;;;;49.28;34.03;;;6.80;99.90;;;;;;4998912;28;20058;-73
2022/03/21 09:03:51;;;;;;;47.53;33.22;;;6.80;99.90;;;;;;4998575;28;20052;-74
2022/03/21 09:06:20;;;;;;;49.70;33.40;;;6.90;99.90;;;;;;4981335;28;20038;-75
2022/03/21 09:08:46;;;;;;;52.92;33.45;;;6.90;99.90;;;;;;4998581;28;20363;-76
2022/03/21 09:11:13;;;;;;;49.55;32.88;;;7.00;99.90;;;;;;4980371;28;20054;-76
2022/03/21 09:13:39;;;;;;;49.08;31.42;;;7.10;99.90;;;;;;4999721;28;20038;-75
2022/03/21 09:16:05;;;;;;;53.88;33.28;;;7.20;99.90;;;;;;5017383;28;20411;-75
2022/03/21 09:18:31;;;;;;;50.80;32.55;;;7.30;99.90;;;;;;5007072;28;20425;-76
2022/03/21 09:20:57;;;;;;;50.63;33.42;;;7.40;99.90;;;;;;5000238;28;20046;-75
2022/03/21 09:23:23;;;;;;;53.20;33.45;;;7.40;99.90;;;;;;5017481;28;20452;-77
2022/03/21 09:25:49;;;;;;;47.90;33.42;;;7.50;99.90;;;;;;5017411;28;20041;-76
2022/03/21 09:28:14;;;;;;;52.92;33.38;;;7.60;99.90;;;;;;5017602;28;20103;-75
2022/03/21 09:30:40;;;;;;;48.22;33.00;;;7.60;99.90;;;;;;5017409;28;20042;-77
2022/03/21 09:33:06;;;;;;;53.83;34.50;;;7.80;99.90;;;;;;5017205;28;20049;-76
2022/03/21 09:35:31;;;;;;;52.50;35.47;;;7.90;99.90;;;;;;5017828;28;20052;-75
2022/03/21 09:37:57;;;;;;;54.03;36.88;;;8.10;99.90;;;;;;5017059;28;20363;-76
2022/03/21 09:40:24;;;;;;;51.42;33.25;;;8.20;99.90;;;;;;5017143;28;20057;-77
2022/03/21 09:42:49;;;;;;;52.95;33.95;;;8.30;99.90;;;;;;5017303;28;20461;-75
2022/03/21 09:45:15;;;;;;;50.85;32.65;;;8.40;99.90;;;;;;5017296;28;20048;-75
2022/03/21 09:50:35;;;;;;;52.53;35.10;;;8.80;99.90;;;;;;5009393;28;20457;-75
2022/03/21 09:53:02;;;;;;;52.00;33.00;;;8.80;99.90;;;;;;4997439;28;20049;-78
2022/03/21 09:55:28;;;;;;;57.38;33.83;;;8.90;99.90;;;;;;4997864;28;20046;-77
2022/03/21 09:57:53;;;;;;;50.35;32.90;;;9.00;99.90;;;;;;4996926;28;20322;-76
2022/03/21 10:00:19;;;;;;;50.63;32.75;;;9.10;99.90;;;;;;4997868;28;20082;-74
2022/03/21 10:02:44;;;;;;;43.65;29.52;;;9.20;99.90;;;;;;4997568;28;20058;-76
2022/03/21 10:05:33;;;;;;;46.30;32.83;;;9.30;99.90;;;;;;4996526;28;20046;-78
2022/03/21 10:08:19;;;;;;;47.97;32.50;;;9.20;99.90;;;;;;4997232;28;20448;-75
2022/03/21 10:11:02;;;;;;;47.97;31.98;;;9.30;99.90;;;;;;4996973;28;20467;-74
2022/03/21 10:13:29;;;;;;;44.88;29.35;;;9.40;99.90;;;;;;4995913;28;20125;-75
2022/03/21 10:16:18;;;;;;;44.92;30.27;;;9.50;99.90;;;;;;4996835;28;20050;-75
2022/03/21 10:18:53;;;;;;;45.80;28.92;;;9.50;99.90;;;;;;4996975;28;20035;-76
2022/03/21 10:21:19;;;;;;;44.33;29.23;;;9.50;99.90;;;;;;4996413;28;20158;-76
2022/03/21 10:24:02;;;;;;;42.88;26.92;;;9.60;99.90;;;;;;4996995;28;20049;-77
2022/03/21 10:26:33;;;;;;;42.70;28.13;;;9.70;99.90;;;;;;4995507;28;20056;-77
2022/03/21 10:29:05;;;;;;;42.20;28.98;;;9.90;99.90;;;;;;4996369;28;20053;-74
2022/03/21 10:31:48;;;;;;;35.38;24.60;;;9.90;99.90;;;;;;4997189;28;20364;-77
2022/03/21 10:34:19;;;;;;;35.95;24.52;;;10.00;99.90;;;;;;4996462;28;20045;-76
2022/03/21 10:36:58;;;;;;;36.47;26.38;;;10.10;99.90;;;;;;4996380;28;20053;-75
2022/03/21 10:39:24;;;;;;;38.50;25.13;;;10.30;99.90;;;;;;4996711;28;20180;-76
2022/03/21 10:42:03;;;;;;;33.47;23.70;;;10.40;99.90;;;;;;4996837;28;20081;-76
2022/03/21 10:44:29;;;;;;;33.72;24.60;;;10.40;99.90;;;;;;4996478;28;20349;-75
2022/03/21 10:46:58;;;;;;;35.63;23.83;;;10.50;99.90;;;;;;4996268;28;20120;-77
2022/03/21 10:52:06;;;;;;;37.25;24.95;;;10.50;99.90;;;;;;5094110;23;20068;-77
2022/03/21 10:54:40;;;;;;;36.38;23.92;;;10.70;99.90;;;;;;5022536;28;20041;-78
2022/03/21 10:57:24;;;;;;;32.80;23.13;;;10.70;99.90;;;;;;5044747;28;20351;-76
2022/03/21 10:59:49;;;;;;;35.97;22.65;;;10.80;99.90;;;;;;5055271;28;20066;-77
2022/03/21 11:02:19;;;;;;;29.48;21.83;;;10.90;99.90;;;;;;5037705;28;20116;-77
2022/03/21 11:04:45;;;;;;;32.47;22.92;;;11.00;99.90;;;;;;5055462;28;20045;-77
2022/03/21 11:07:12;;;;;;;25.45;17.20;;;11.10;99.90;;;;;;5055483;28;20312;-78
2022/03/21 11:09:42;;;;;;;28.70;19.88;;;11.20;99.90;;;;;;5037166;28;20063;-78
2022/03/21 11:12:09;;;;;;;30.25;20.48;;;11.20;99.90;;;;;;5055001;28;20041;-77
2022/03/21 11:14:37;;;;;;;22.83;17.95;;;11.30;99.90;;;;;;5052086;28;20047;-77
2022/03/21 11:17:05;;;;;;;27.65;19.80;;;11.30;99.90;;;;;;5034392;28;20163;-78
2022/03/21 11:19:31;;;;;;;29.40;19.33;;;11.40;99.90;;;;;;5042795;28;20048;-78
2022/03/21 11:21:56;;;;;;;23.05;16.45;;;11.40;99.90;;;;;;5055423;28;20029;-76
2022/03/21 11:24:22;;;;;;;23.80;16.63;;;11.50;99.90;;;;;;5055014;28;20146;-78
2022/03/21 11:27:20;;;;;;;27.30;19.42;;;11.50;99.90;;;;;;5054576;28;20045;-77
2022/03/21 11:30:07;;;;;;;24.38;17.50;;;11.50;99.90;;;;;;5054862;28;20187;-76
2022/03/21 11:32:46;;;;;;;27.13;17.88;;;11.50;99.90;;;;;;5037699;28;20051;-75
2022/03/21 11:35:23;;;;;;;21.33;15.70;;;11.70;99.90;;;;;;5037013;28;20044;-76
2022/03/21 11:37:50;;;;;;;24.40;16.63;;;11.80;99.90;;;;;;5054767;28;20439;-78
2022/03/21 11:40:31;;;;;;;22.40;16.20;;;11.80;99.90;;;;;;5054986;28;20044;-78
2022/03/21 11:43:15;;;;;;;24.15;15.80;;;11.80;99.90;;;;;;5055002;28;20052;-78
2022/03/21 11:45:41;;;;;;;24.10;16.20;;;11.90;99.90;;;;;;5017035;28;20052;-78
2022/03/21 11:48:18;;;;;;;21.15;14.48;;;11.90;99.90;;;;;;5034940;28;20037;-78
2022/03/21 11:50:49;;;;;;;27.05;15.60;;;11.90;99.90;;;;;;5017001;28;20114;-78
2022/03/21 11:53:16;;;;;;;20.70;14.70;;;12.00;99.90;;;;;;5034880;28;20103;-77
2022/03/21 11:55:44;;;;;;;17.63;11.75;;;12.10;99.90;;;;;;5035137;28;20402;-76
2022/03/21 11:58:21;;;;;;;18.88;13.73;;;12.10;99.90;;;;;;5037117;28;20447;-76
2022/03/21 12:01:13;;;;;;;20.50;15.20;;;12.20;97.10;;;;;;5054736;28;20040;-77
2022/03/21 12:03:43;;;;;;;22.00;16.05;;;12.30;99.60;;;;;;5054938;28;20041;-75
2022/03/21 12:06:30;;;;;;;23.88;16.50;;;12.40;99.90;;;;;;5028876;28;20053;-76
2022/03/21 12:08:59;;;;;;;17.63;14.18;;;12.30;97.90;;;;;;5053855;28;20053;-78
2022/03/21 12:11:46;;;;;;;22.80;15.07;;;12.30;99.80;;;;;;5054230;28;20102;-77
2022/03/21 12:14:19;;;;;;;23.85;16.50;;;12.30;99.90;;;;;;5054675;28;20064;-78
2022/03/21 12:16:47;;;;;;;23.13;16.23;;;12.30;99.90;;;;;;5054363;28;20049;-79
2022/03/21 12:19:12;;;;;;;21.17;15.90;;;12.30;99.90;;;;;;5037612;28;20053;-76
2022/03/21 12:21:38;;;;;;;23.95;16.27;;;12.50;99.90;;;;;;5055768;28;20504;-77
2022/03/21 12:24:11;;;;;;;23.02;16.27;;;12.50;98.50;;;;;;5058331;28;20159;-76
2022/03/21 12:26:36;;;;;;;22.48;16.17;;;12.60;99.90;;;;;;5022417;28;20080;-76
2022/03/21 12:31:46;;;;;;;25.73;17.80;;;12.60;99.90;;;;;;5058307;28;20041;-76
2022/03/21 12:34:34;;;;;;;22.40;17.13;;;12.50;99.90;;;;;;5040725;28;20045;-77
2022/03/21 12:37:22;;;;;;;25.58;17.20;;;12.50;99.90;;;;;;5058114;28;20120;-77
2022/03/21 12:39:48;;;;;;;21.52;16.67;;;12.70;99.90;;;;;;5039700;28;20049;-79
2022/03/21 12:42:17;;;;;;;22.83;17.08;;;12.90;99.90;;;;;;5038239;28;20037;-75
2022/03/21 12:44:42;;;;;;;26.30;17.25;;;12.90;98.20;;;;;;5038062;28;20037;-74
2022/03/21 12:47:10;;;;;;;25.98;16.67;;;13.10;98.00;;;;;;5039071;28;20033;-73
2022/03/21 12:49:49;;;;;;;20.35;16.02;;;12.90;96.20;;;;;;5054604;28;20072;-76
2022/03/21 12:52:25;;;;;;;26.50;18.48;;;12.90;96.30;;;;;;5057785;28;20138;-73
2022/03/21 12:54:51;;;;;;;23.60;17.25;;;13.10;97.10;;;;;;5058190;28;20064;-73
2022/03/21 12:57:16;;;;;;;23.63;17.75;;;13.10;99.90;;;;;;5057773;28;20431;-75
2022/03/21 12:59:42;;;;;;;25.40;18.23;;;13.10;99.90;;;;;;5054274;28;20041;-74
2022/03/21 13:02:24;;;;;;;26.65;18.35;;;13.20;98.30;;;;;;5046818;28;20053;-77
2022/03/21 13:10:34;;;;;;;26.63;18.42;;;13.40;98.90;;;;;;5037951;28;20355;-75